Riachao, Brazil
Current Conditions -  °F | °C
As of 1:00 PM on Friday 24 Oct 2014 (Local Time) from SBIZ Reporting Station
Scattered Clouds Scattered Clouds  
Wind Chill: 88°   Ceiling: Unl
Heat Index: 98°   Visibility: 6mi
Dew Point: 75°   Wind: 10mph
Humidity: 66%   Direction: 240°WSW
Pressure: 29.85"   Gusts: NA
Location:  7.36°S, 46.62°W
Report Text: SBIZ 241600Z 24009KT 9999 SCT020 31/24 Q1011
Loading
Personal Weather Stations






























Interactive Weather Map
Tropical Storm Tracking
New forecast layout! Learn more

10-Day Weather Forecast

Advertisements
Track Severe Weather on mobile